sensor_id;sensor_type;location;lat;lon;timestamp;temperature;humidity
1091;DHT22;534;48.704;9.122;2023-05-07T04:00:43;17.10;72.50
1091;DHT22;534;48.704;9.122;2023-05-07T04:03:10;17.00;72.70
1091;DHT22;534;48.704;9.122;2023-05-07T04:05:36;17.00;72.90
1091;DHT22;534;48.704;9.122;2023-05-07T04:08:03;17.00;72.90
1091;DHT22;534;48.704;9.122;2023-05-07T04:10:31;17.00;73.10
1091;DHT22;534;48.704;9.122;2023-05-07T04:12:57;17.00;73.00
1091;DHT22;534;48.704;9.122;2023-05-07T04:17:53;17.00;73.10
1091;DHT22;534;48.704;9.122;2023-05-07T04:20:20;17.00;73.00
1091;DHT22;534;48.704;9.122;2023-05-07T04:22:46;17.00;73.10
1091;DHT22;534;48.704;9.122;2023-05-07T04:25:13;17.00;72.80
1091;DHT22;534;48.704;9.122;2023-05-07T04:27:40;17.00;72.80
1091;DHT22;534;48.704;9.122;2023-05-07T04:30:08;17.10;72.90
1091;DHT22;534;48.704;9.122;2023-05-07T04:32:34;17.10;72.60
1091;DHT22;534;48.704;9.122;2023-05-07T04:35:04;17.10;72.90
1091;DHT22;534;48.704;9.122;2023-05-07T04:37:32;17.10;72.80
1091;DHT22;534;48.704;9.122;2023-05-07T04:39:58;17.20;72.70
1091;DHT22;534;48.704;9.122;2023-05-07T04:42:25;17.30;72.60
1091;DHT22;534;48.704;9.122;2023-05-07T04:44:53;17.40;72.50
1091;DHT22;534;48.704;9.122;2023-05-07T04:47:20;17.40;72.60
1091;DHT22;534;48.704;9.122;2023-05-07T04:49:46;17.40;72.70
1091;DHT22;534;48.704;9.122;2023-05-07T04:52:14;17.40;72.80
1091;DHT22;534;48.704;9.122;2023-05-07T04:54:42;17.40;72.70
1091;DHT22;534;48.704;9.122;2023-05-07T04:57:08;17.50;72.40
1091;DHT22;534;48.704;9.122;2023-05-07T04:59:35;17.40;72.30
1091;DHT22;534;48.704;9.122;2023-05-07T05:02:02;17.50;72.30
1091;DHT22;534;48.704;9.122;2023-05-07T05:04:30;17.50;72.60
1091;DHT22;534;48.704;9.122;2023-05-07T05:06:57;17.50;72.70
1091;DHT22;534;48.704;9.122;2023-05-07T05:09:25;17.60;72.80
1091;DHT22;534;48.704;9.122;2023-05-07T05:11:52;17.60;72.90
1091;DHT22;534;48.704;9.122;2023-05-07T05:14:18;17.60;72.80
1091;DHT22;534;48.704;9.122;2023-05-07T05:16:45;17.60;72.60
1091;DHT22;534;48.704;9.122;2023-05-07T05:19:12;17.60;72.70
1091;DHT22;534;48.704;9.122;2023-05-07T05:21:38;17.70;72.90
1091;DHT22;534;48.704;9.122;2023-05-07T05:24:06;17.80;72.80
1091;DHT22;534;48.704;9.122;2023-05-07T05:26:34;18.00;71.60
1091;DHT22;534;48.704;9.122;2023-05-07T05:29:00;18.20;71.00
1091;DHT22;534;48.704;9.122;2023-05-07T05:31:27;18.40;70.40
1091;DHT22;534;48.704;9.122;2023-05-07T05:33:54;18.70;69.50
1091;DHT22;534;48.704;9.122;2023-05-07T05:36:20;18.70;68.30
1091;DHT22;534;48.704;9.122;2023-05-07T05:38:47;18.60;67.70
1091;DHT22;534;48.704;9.122;2023-05-07T05:41:14;18.40;68.40
1091;DHT22;534;48.704;9.122;2023-05-07T05:43:42;18.20;68.20
1091;DHT22;534;48.704;9.122;2023-05-07T05:46:08;18.20;68.80
1091;DHT22;534;48.704;9.122;2023-05-07T05:48:37;18.10;70.80
1091;DHT22;534;48.704;9.122;2023-05-07T05:51:03;18.20;69.30
1091;DHT22;534;48.704;9.122;2023-05-07T05:53:30;18.20;68.80
1091;DHT22;534;48.704;9.122;2023-05-07T05:55:56;18.10;69.30
1091;DHT22;534;48.704;9.122;2023-05-07T05:58:23;17.90;69.80
1091;DHT22;534;48.704;9.122;2023-05-07T06:00:51;18.00;70.90
1091;DHT22;534;48.704;9.122;2023-05-07T06:03:18;18.40;70.10
1091;DHT22;534;48.704;9.122;2023-05-07T06:05:45;18.50;70.40
1091;DHT22;534;48.704;9.122;2023-05-07T06:08:12;18.50;69.00
1091;DHT22;534;48.704;9.122;2023-05-07T06:10:38;18.50;70.60
1091;DHT22;534;48.704;9.122;2023-05-07T06:13:05;18.90;67.80
1091;DHT22;534;48.704;9.122;2023-05-07T06:15:32;18.60;69.00
1091;DHT22;534;48.704;9.122;2023-05-07T06:18:00;18.70;68.70
1091;DHT22;534;48.704;9.122;2023-05-07T06:20:26;18.70;69.20
1091;DHT22;534;48.704;9.122;2023-05-07T06:22:53;18.90;69.00
1091;DHT22;534;48.704;9.122;2023-05-07T06:25:20;19.20;68.90
1091;DHT22;534;48.704;9.122;2023-05-07T06:27:46;19.40;68.50
1091;DHT22;534;48.704;9.122;2023-05-07T06:30:13;19.70;66.90
1091;DHT22;534;48.704;9.122;2023-05-07T06:32:40;19.70;67.00
1091;DHT22;534;48.704;9.122;2023-05-07T06:35:08;20.10;67.30
1091;DHT22;534;48.704;9.122;2023-05-07T06:37:35;20.30;65.30
1091;DHT22;534;48.704;9.122;2023-05-07T06:40:04;20.10;65.90
1091;DHT22;534;48.704;9.122;2023-05-07T06:42:32;20.20;66.00
1091;DHT22;534;48.704;9.122;2023-05-07T06:44:59;20.20;66.00
1091;DHT22;534;48.704;9.122;2023-05-07T06:47:25;20.60;66.00
1091;DHT22;534;48.704;9.122;2023-05-07T06:49:52;20.70;65.90
1091;DHT22;534;48.704;9.122;2023-05-07T06:52:20;20.70;65.50
1091;DHT22;534;48.704;9.122;2023-05-07T06:54:47;20.60;65.40
1091;DHT22;534;48.704;9.122;2023-05-07T06:57:13;20.40;66.10
1091;DHT22;534;48.704;9.122;2023-05-07T06:59:40;20.70;66.30
1091;DHT22;534;48.704;9.122;2023-05-07T07:02:07;20.80;66.30
1091;DHT22;534;48.704;9.122;2023-05-07T07:04:33;21.30;66.00
1091;DHT22;534;48.704;9.122;2023-05-07T07:07:00;21.50;65.80
1091;DHT22;534;48.704;9.122;2023-05-07T07:09:28;21.40;65.30
1091;DHT22;534;48.704;9.122;2023-05-07T07:11:55;21.50;65.70
1091;DHT22;534;48.704;9.122;2023-05-07T07:14:21;21.40;64.40
1091;DHT22;534;48.704;9.122;2023-05-07T07:16:48;21.40;65.60
1091;DHT22;534;48.704;9.122;2023-05-07T07:19:15;21.70;65.60
1091;DHT22;534;48.704;9.122;2023-05-07T07:21:41;21.80;65.40
1091;DHT22;534;48.704;9.122;2023-05-07T07:24:08;21.80;64.50
1091;DHT22;534;48.704;9.122;2023-05-07T07:26:36;21.90;63.90
1091;DHT22;534;48.704;9.122;2023-05-07T07:29:03;22.20;64.10
1091;DHT22;534;48.704;9.122;2023-05-07T07:31:29;22.10;64.20
1091;DHT22;534;48.704;9.122;2023-05-07T07:33:56;22.50;64.70
1091;DHT22;534;48.704;9.122;2023-05-07T07:36:23;22.50;63.40
1091;DHT22;534;48.704;9.122;2023-05-07T07:38:51;22.10;64.80
1091;DHT22;534;48.704;9.122;2023-05-07T07:41:17;22.10;64.10
1091;DHT22;534;48.704;9.122;2023-05-07T07:43:46;22.50;65.50
1091;DHT22;534;48.704;9.122;2023-05-07T07:46:12;22.50;65.40
1091;DHT22;534;48.704;9.122;2023-05-07T07:48:39;22.40;64.40
1091;DHT22;534;48.704;9.122;2023-05-07T07:51:06;22.50;63.40
1091;DHT22;534;48.704;9.122;2023-05-07T07:53:32;22.50;64.60
1091;DHT22;534;48.704;9.122;2023-05-07T07:55:59;22.60;65.40
1091;DHT22;534;48.704;9.122;2023-05-07T07:58:26;22.30;64.20
1091;DHT22;534;48.704;9.122;2023-05-07T08:00:54;22.60;65.60
1091;DHT22;534;48.704;9.122;2023-05-07T08:03:21;22.60;65.30
1091;DHT22;534;48.704;9.122;2023-05-07T08:05:48;22.80;62.80
1091;DHT22;534;48.704;9.122;2023-05-07T08:08:16;23.10;63.80
1091;DHT22;534;48.704;9.122;2023-05-07T08:10:43;23.20;62.00
1091;DHT22;534;48.704;9.122;2023-05-07T08:13:10;23.40;61.50
1091;DHT22;534;48.704;9.122;2023-05-07T08:15:36;23.40;61.70
1091;DHT22;534;48.704;9.122;2023-05-07T08:18:04;23.20;61.70
1091;DHT22;534;48.704;9.122;2023-05-07T08:20:31;23.00;61.80
1091;DHT22;534;48.704;9.122;2023-05-07T08:22:58;23.00;62.60
1091;DHT22;534;48.704;9.122;2023-05-07T08:25:25;23.20;61.30
1091;DHT22;534;48.704;9.122;2023-05-07T08:27:52;23.40;61.50
1091;DHT22;534;48.704;9.122;2023-05-07T08:30:18;23.70;61.10
1091;DHT22;534;48.704;9.122;2023-05-07T08:32:45;23.90;60.40
1091;DHT22;534;48.704;9.122;2023-05-07T08:35:13;23.70;60.90
1091;DHT22;534;48.704;9.122;2023-05-07T08:37:40;23.70;60.60
1091;DHT22;534;48.704;9.122;2023-05-07T08:40:07;23.20;62.10
1091;DHT22;534;48.704;9.122;2023-05-07T08:42:36;23.20;61.80
1091;DHT22;534;48.704;9.122;2023-05-07T08:45:04;23.30;63.00
1091;DHT22;534;48.704;9.122;2023-05-07T08:47:42;23.50;61.20
1091;DHT22;534;48.704;9.122;2023-05-07T08:50:10;23.70;62.10
1091;DHT22;534;48.704;9.122;2023-05-07T08:52:39;23.60;62.90
1091;DHT22;534;48.704;9.122;2023-05-07T08:55:07;23.30;62.20
1091;DHT22;534;48.704;9.122;2023-05-07T08:57:34;23.10;64.20
1091;DHT22;534;48.704;9.122;2023-05-07T09:00:01;23.30;64.00
1091;DHT22;534;48.704;9.122;2023-05-07T09:02:28;23.50;64.60
1091;DHT22;534;48.704;9.122;2023-05-07T09:04:55;23.60;62.50
1091;DHT22;534;48.704;9.122;2023-05-07T09:07:22;23.40;62.30
1091;DHT22;534;48.704;9.122;2023-05-07T09:09:50;23.10;63.30
1091;DHT22;534;48.704;9.122;2023-05-07T09:12:17;22.70;63.80
1091;DHT22;534;48.704;9.122;2023-05-07T09:14:44;22.90;64.20
1091;DHT22;534;48.704;9.122;2023-05-07T09:17:11;22.90;65.00
1091;DHT22;534;48.704;9.122;2023-05-07T09:19:38;23.30;64.20
1091;DHT22;534;48.704;9.122;2023-05-07T09:22:05;23.10;65.00
1091;DHT22;534;48.704;9.122;2023-05-07T09:24:33;23.30;65.50
1091;DHT22;534;48.704;9.122;2023-05-07T09:27:04;23.60;63.40
1091;DHT22;534;48.704;9.122;2023-05-07T09:29:31;23.70;62.80
1091;DHT22;534;48.704;9.122;2023-05-07T09:32:00;23.90;62.70
1091;DHT22;534;48.704;9.122;2023-05-07T09:34:28;24.00;62.60
1091;DHT22;534;48.704;9.122;2023-05-07T09:36:55;23.90;61.70
1091;DHT22;534;48.704;9.122;2023-05-07T09:39:23;23.90;61.00
1091;DHT22;534;48.704;9.122;2023-05-07T09:41:50;24.10;61.30
1091;DHT22;534;48.704;9.122;2023-05-07T09:44:21;24.30;62.60
1091;DHT22;534;48.704;9.122;2023-05-07T09:46:53;24.60;61.20
1091;DHT22;534;48.704;9.122;2023-05-07T09:49:22;24.40;59.70
1091;DHT22;534;48.704;9.122;2023-05-07T09:51:51;24.60;59.90
1091;DHT22;534;48.704;9.122;2023-05-07T09:54:18;24.60;60.30
1091;DHT22;534;48.704;9.122;2023-05-07T09:56:45;24.60;60.00
1091;DHT22;534;48.704;9.122;2023-05-07T09:59:14;25.00;59.70
1091;DHT22;534;48.704;9.122;2023-05-07T10:01:43;24.80;59.60
1091;DHT22;534;48.704;9.122;2023-05-07T10:04:11;24.40;61.60
1091;DHT22;534;48.704;9.122;2023-05-07T10:06:38;24.40;60.50
1091;DHT22;534;48.704;9.122;2023-05-07T10:09:05;24.50;59.50
1091;DHT22;534;48.704;9.122;2023-05-07T10:11:32;24.30;59.80
1091;DHT22;534;48.704;9.122;2023-05-07T10:14:00;24.10;60.70
1091;DHT22;534;48.704;9.122;2023-05-07T10:16:28;24.30;61.70
1091;DHT22;534;48.704;9.122;2023-05-07T10:18:58;24.60;59.90
1091;DHT22;534;48.704;9.122;2023-05-07T10:21:27;24.70;59.70
1091;DHT22;534;48.704;9.122;2023-05-07T10:23:58;24.70;60.90
1091;DHT22;534;48.704;9.122;2023-05-07T10:26:27;24.50;59.60
1091;DHT22;534;48.704;9.122;2023-05-07T10:28:59;24.30;58.60
1091;DHT22;534;48.704;9.122;2023-05-07T10:31:47;24.10;59.40
1091;DHT22;534;48.704;9.122;2023-05-07T10:34:19;24.20;60.50
1091;DHT22;534;48.704;9.122;2023-05-07T10:36:48;24.30;60.80
1091;DHT22;534;48.704;9.122;2023-05-07T10:39:16;24.30;59.10
1091;DHT22;534;48.704;9.122;2023-05-07T10:41:42;24.30;58.80
1091;DHT22;534;48.704;9.122;2023-05-07T10:44:09;24.50;60.20
1091;DHT22;534;48.704;9.122;2023-05-07T10:46:36;24.70;59.10
1091;DHT22;534;48.704;9.122;2023-05-07T10:49:09;24.90;59.30
1091;DHT22;534;48.704;9.122;2023-05-07T10:51:39;24.80;57.40
1091;DHT22;534;48.704;9.122;2023-05-07T10:54:19;24.90;59.20
1091;DHT22;534;48.704;9.122;2023-05-07T10:56:46;25.00;57.60
1091;DHT22;534;48.704;9.122;2023-05-07T10:59:35;25.10;57.70
1091;DHT22;534;48.704;9.122;2023-05-07T11:02:07;25.30;56.60
1091;DHT22;534;48.704;9.122;2023-05-07T11:04:35;25.30;56.30
1091;DHT22;534;48.704;9.122;2023-05-07T11:07:26;25.10;56.70
1091;DHT22;534;48.704;9.122;2023-05-07T11:09:57;25.10;56.90
1091;DHT22;534;48.704;9.122;2023-05-07T11:12:54;25.10;56.60
1091;DHT22;534;48.704;9.122;2023-05-07T11:15:35;25.10;55.30
1091;DHT22;534;48.704;9.122;2023-05-07T11:18:02;25.30;56.90
1091;DHT22;534;48.704;9.122;2023-05-07T11:20:56;25.10;53.90
1091;DHT22;534;48.704;9.122;2023-05-07T11:23:59;25.10;55.10
1091;DHT22;534;48.704;9.122;2023-05-07T11:26:30;25.10;54.90
1091;DHT22;534;48.704;9.122;2023-05-07T11:28:57;24.90;55.00
1091;DHT22;534;48.704;9.122;2023-05-07T11:31:27;24.60;55.00
1091;DHT22;534;48.704;9.122;2023-05-07T11:33:55;24.70;54.80
1091;DHT22;534;48.704;9.122;2023-05-07T11:36:23;24.40;54.00
1091;DHT22;534;48.704;9.122;2023-05-07T11:38:50;24.60;55.00
1091;DHT22;534;48.704;9.122;2023-05-07T11:41:18;24.40;55.10
1091;DHT22;534;48.704;9.122;2023-05-07T11:43:59;24.60;56.80
1091;DHT22;534;48.704;9.122;2023-05-07T11:46:27;24.60;57.00
1091;DHT22;534;48.704;9.122;2023-05-07T11:48:55;24.20;56.40
1091;DHT22;534;48.704;9.122;2023-05-07T11:51:23;24.20;58.00
1091;DHT22;534;48.704;9.122;2023-05-07T11:53:51;24.00;57.20
1091;DHT22;534;48.704;9.122;2023-05-07T11:56:19;24.00;55.90
1091;DHT22;534;48.704;9.122;2023-05-07T11:58:47;24.40;55.10
1091;DHT22;534;48.704;9.122;2023-05-07T12:01:15;24.70;56.30
1091;DHT22;534;48.704;9.122;2023-05-07T12:03:43;24.60;54.20
1091;DHT22;534;48.704;9.122;2023-05-07T12:06:11;24.80;54.30
1091;DHT22;534;48.704;9.122;2023-05-07T12:08:39;24.90;55.00
1091;DHT22;534;48.704;9.122;2023-05-07T12:11:12;24.90;57.50
1091;DHT22;534;48.704;9.122;2023-05-07T12:13:41;24.60;59.60
1091;DHT22;534;48.704;9.122;2023-05-07T12:16:08;24.20;61.00
1091;DHT22;534;48.704;9.122;2023-05-07T12:18:35;23.90;61.20
1091;DHT22;534;48.704;9.122;2023-05-07T12:21:04;23.60;59.80
1091;DHT22;534;48.704;9.122;2023-05-07T12:23:31;23.20;59.80
1091;DHT22;534;48.704;9.122;2023-05-07T12:25:59;23.10;59.50
1091;DHT22;534;48.704;9.122;2023-05-07T12:28:26;22.90;59.10
1091;DHT22;534;48.704;9.122;2023-05-07T12:30:54;22.80;59.20
1091;DHT22;534;48.704;9.122;2023-05-07T12:33:24;22.70;59.30
1091;DHT22;534;48.704;9.122;2023-05-07T12:35:53;22.50;59.60
1091;DHT22;534;48.704;9.122;2023-05-07T12:38:20;22.20;59.70
1091;DHT22;534;48.704;9.122;2023-05-07T12:40:48;22.00;60.30
1091;DHT22;534;48.704;9.122;2023-05-07T12:43:17;21.80;60.20
1091;DHT22;534;48.704;9.122;2023-05-07T12:45:44;21.40;63.40
1091;DHT22;534;48.704;9.122;2023-05-07T12:48:13;21.10;64.80
1091;DHT22;534;48.704;9.122;2023-05-07T12:50:39;20.60;65.50
1091;DHT22;534;48.704;9.122;2023-05-07T12:53:07;20.30;63.60
1091;DHT22;534;48.704;9.122;2023-05-07T12:55:41;20.10;66.70
1091;DHT22;534;48.704;9.122;2023-05-07T12:58:14;20.10;67.40
1091;DHT22;534;48.704;9.122;2023-05-07T13:00:42;20.20;67.40
1091;DHT22;534;48.704;9.122;2023-05-07T13:03:09;20.40;69.80
1091;DHT22;534;48.704;9.122;2023-05-07T13:05:37;20.60;68.60
1091;DHT22;534;48.704;9.122;2023-05-07T13:08:04;20.80;71.20
1091;DHT22;534;48.704;9.122;2023-05-07T13:10:31;20.80;73.70
1091;DHT22;534;48.704;9.122;2023-05-07T13:12:59;20.70;74.20
1091;DHT22;534;48.704;9.122;2023-05-07T13:15:26;20.60;74.10
1091;DHT22;534;48.704;9.122;2023-05-07T13:17:53;20.40;72.10
1091;DHT22;534;48.704;9.122;2023-05-07T13:20:19;20.30;72.80
1091;DHT22;534;48.704;9.122;2023-05-07T13:22:47;20.20;73.40
1091;DHT22;534;48.704;9.122;2023-05-07T13:25:14;19.90;71.80
1091;DHT22;534;48.704;9.122;2023-05-07T13:27:40;19.70;72.50
1091;DHT22;534;48.704;9.122;2023-05-07T13:30:07;19.50;74.10
1091;DHT22;534;48.704;9.122;2023-05-07T13:32:34;19.40;74.00
1091;DHT22;534;48.704;9.122;2023-05-07T13:35:01;19.30;75.70
1091;DHT22;534;48.704;9.122;2023-05-07T13:37:28;19.30;75.70
1091;DHT22;534;48.704;9.122;2023-05-07T13:39:56;19.30;74.90
1091;DHT22;534;48.704;9.122;2023-05-07T13:42:23;19.30;76.50
1091;DHT22;534;48.704;9.122;2023-05-07T13:44:50;19.30;76.80
1091;DHT22;534;48.704;9.122;2023-05-07T13:47:16;19.20;77.20
1091;DHT22;534;48.704;9.122;2023-05-07T13:49:43;18.80;79.20
1091;DHT22;534;48.704;9.122;2023-05-07T13:52:10;18.40;79.90
1091;DHT22;534;48.704;9.122;2023-05-07T13:54:37;18.00;80.50
1091;DHT22;534;48.704;9.122;2023-05-07T13:57:05;17.60;82.30
1091;DHT22;534;48.704;9.122;2023-05-07T13:59:31;17.40;83.50
1091;DHT22;534;48.704;9.122;2023-05-07T14:01:58;17.20;84.00
1091;DHT22;534;48.704;9.122;2023-05-07T14:04:25;17.20;84.40
1091;DHT22;534;48.704;9.122;2023-05-07T14:06:51;17.40;84.00
1091;DHT22;534;48.704;9.122;2023-05-07T14:09:18;17.60;83.50
1091;DHT22;534;48.704;9.122;2023-05-07T14:11:45;17.70;82.90
1091;DHT22;534;48.704;9.122;2023-05-07T14:14:14;17.60;82.60
1091;DHT22;534;48.704;9.122;2023-05-07T14:16:40;17.40;82.80
1091;DHT22;534;48.704;9.122;2023-05-07T14:19:07;17.00;84.80
1091;DHT22;534;48.704;9.122;2023-05-07T14:21:34;16.60;86.10
1091;DHT22;534;48.704;9.122;2023-05-07T14:24:01;16.70;86.70
1091;DHT22;534;48.704;9.122;2023-05-07T14:26:28;16.80;86.80
1091;DHT22;534;48.704;9.122;2023-05-07T14:28:55;16.60;86.90
1091;DHT22;534;48.704;9.122;2023-05-07T14:31:25;16.50;87.10
1091;DHT22;534;48.704;9.122;2023-05-07T14:33:51;16.40;87.30
1091;DHT22;534;48.704;9.122;2023-05-07T14:36:19;16.40;88.10
1091;DHT22;534;48.704;9.122;2023-05-07T14:38:46;16.60;87.20
1091;DHT22;534;48.704;9.122;2023-05-07T14:41:13;16.80;87.20
1091;DHT22;534;48.704;9.122;2023-05-07T14:43:40;16.80;86.90
1091;DHT22;534;48.704;9.122;2023-05-07T14:46:07;17.00;87.50
1091;DHT22;534;48.704;9.122;2023-05-07T14:48:34;17.20;86.30
1091;DHT22;534;48.704;9.122;2023-05-07T14:51:01;17.40;85.80
1091;DHT22;534;48.704;9.122;2023-05-07T14:53:28;17.50;86.30
1091;DHT22;534;48.704;9.122;2023-05-07T14:55:54;17.80;85.80
1091;DHT22;534;48.704;9.122;2023-05-07T14:58:21;18.10;84.00
1091;DHT22;534;48.704;9.122;2023-05-07T15:00:48;18.10;83.20
1091;DHT22;534;48.704;9.122;2023-05-07T15:03:15;18.30;83.20
1091;DHT22;534;48.704;9.122;2023-05-07T15:05:43;18.40;83.00
1091;DHT22;534;48.704;9.122;2023-05-07T15:08:09;18.60;81.70
1091;DHT22;534;48.704;9.122;2023-05-07T15:10:38;18.80;81.90
1091;DHT22;534;48.704;9.122;2023-05-07T15:13:07;18.90;80.30
1091;DHT22;534;48.704;9.122;2023-05-07T15:15:33;19.00;80.80
1091;DHT22;534;48.704;9.122;2023-05-07T15:18:00;19.10;80.50
1091;DHT22;534;48.704;9.122;2023-05-07T15:20:27;19.20;80.50
1091;DHT22;534;48.704;9.122;2023-05-07T15:22:55;19.40;80.70
1091;DHT22;534;48.704;9.122;2023-05-07T15:25:22;19.50;80.40
1091;DHT22;534;48.704;9.122;2023-05-07T15:27:49;19.70;79.50
1091;DHT22;534;48.704;9.122;2023-05-07T15:30:16;19.80;79.50
1091;DHT22;534;48.704;9.122;2023-05-07T15:32:45;19.90;79.70
1091;DHT22;534;48.704;9.122;2023-05-07T15:35:12;19.90;79.00
1091;DHT22;534;48.704;9.122;2023-05-07T15:37:39;20.00;78.70
1091;DHT22;534;48.704;9.122;2023-05-07T15:40:08;20.10;79.20
1091;DHT22;534;48.704;9.122;2023-05-07T15:42:36;20.10;77.80
1091;DHT22;534;48.704;9.122;2023-05-07T15:45:03;19.80;75.80
1091;DHT22;534;48.704;9.122;2023-05-07T15:47:32;19.80;78.40
1091;DHT22;534;48.704;9.122;2023-05-07T15:50:00;19.60;80.00
1091;DHT22;534;48.704;9.122;2023-05-07T15:52:26;19.70;80.20
1091;DHT22;534;48.704;9.122;2023-05-07T15:54:53;19.90;79.60
1091;DHT22;534;48.704;9.122;2023-05-07T15:57:22;20.00;79.00
1091;DHT22;534;48.704;9.122;2023-05-07T15:59:49;20.10;79.10
1091;DHT22;534;48.704;9.122;2023-05-07T16:02:15;20.30;78.90
1091;DHT22;534;48.704;9.122;2023-05-07T16:04:42;20.40;79.00
1091;DHT22;534;48.704;9.122;2023-05-07T16:07:09;20.50;79.70
1091;DHT22;534;48.704;9.122;2023-05-07T16:09:35;20.50;79.80
1091;DHT22;534;48.704;9.122;2023-05-07T16:12:02;20.60;79.80
1091;DHT22;534;48.704;9.122;2023-05-07T16:14:31;20.60;79.50
1091;DHT22;534;48.704;9.122;2023-05-07T16:16:57;20.50;79.30
1091;DHT22;534;48.704;9.122;2023-05-07T16:19:24;20.60;80.00
1091;DHT22;534;48.704;9.122;2023-05-07T16:21:51;20.60;79.40
1091;DHT22;534;48.704;9.122;2023-05-07T16:24:17;20.60;80.00
1091;DHT22;534;48.704;9.122;2023-05-07T16:26:44;20.50;79.70
1091;DHT22;534;48.704;9.122;2023-05-07T16:29:10;20.50;79.90
1091;DHT22;534;48.704;9.122;2023-05-07T16:31:38;20.50;80.00
1091;DHT22;534;48.704;9.122;2023-05-07T16:34:05;20.50;79.40
1091;DHT22;534;48.704;9.122;2023-05-07T16:36:32;20.40;79.20
1091;DHT22;534;48.704;9.122;2023-05-07T16:38:59;20.50;79.00
1091;DHT22;534;48.704;9.122;2023-05-07T16:41:25;20.50;79.40
1091;DHT22;534;48.704;9.122;2023-05-07T16:43:52;20.50;79.30
1091;DHT22;534;48.704;9.122;2023-05-07T16:46:18;20.60;79.20
1091;DHT22;534;48.704;9.122;2023-05-07T16:48:46;20.60;79.00
1091;DHT22;534;48.704;9.122;2023-05-07T16:51:13;20.50;79.20
1091;DHT22;534;48.704;9.122;2023-05-07T16:53:40;20.40;79.00
1091;DHT22;534;48.704;9.122;2023-05-07T16:56:07;20.30;79.20
1091;DHT22;534;48.704;9.122;2023-05-07T16:58:33;20.10;79.90
1091;DHT22;534;48.704;9.122;2023-05-07T17:01:00;20.00;80.00
1091;DHT22;534;48.704;9.122;2023-05-07T17:03:28;19.80;80.50
1091;DHT22;534;48.704;9.122;2023-05-07T17:05:57;19.90;80.20
1091;DHT22;534;48.704;9.122;2023-05-07T17:08:24;19.90;80.10
1091;DHT22;534;48.704;9.122;2023-05-07T17:10:51;19.90;80.30
1091;DHT22;534;48.704;9.122;2023-05-07T17:13:17;19.90;79.90
1091;DHT22;534;48.704;9.122;2023-05-07T17:15:44;19.90;79.90
1091;DHT22;534;48.704;9.122;2023-05-07T17:18:12;20.00;79.80
1091;DHT22;534;48.704;9.122;2023-05-07T17:20:38;20.00;79.60
1091;DHT22;534;48.704;9.122;2023-05-07T17:23:06;19.90;79.90
1091;DHT22;534;48.704;9.122;2023-05-07T17:25:34;19.90;80.40
1091;DHT22;534;48.704;9.122;2023-05-07T17:28:01;19.90;80.60
1091;DHT22;534;48.704;9.122;2023-05-07T17:30:28;19.90;80.60
1091;DHT22;534;48.704;9.122;2023-05-07T17:32:54;20.00;80.60
1091;DHT22;534;48.704;9.122;2023-05-07T17:35:21;20.10;80.60
1091;DHT22;534;48.704;9.122;2023-05-07T17:37:48;20.10;80.40
1091;DHT22;534;48.704;9.122;2023-05-07T17:40:18;20.10;80.70
1091;DHT22;534;48.704;9.122;2023-05-07T17:42:46;20.10;80.70
1091;DHT22;534;48.704;9.122;2023-05-07T17:45:13;20.00;81.00
1091;DHT22;534;48.704;9.122;2023-05-07T17:47:40;20.00;80.80
1091;DHT22;534;48.704;9.122;2023-05-07T17:50:08;19.90;81.20
1091;DHT22;534;48.704;9.122;2023-05-07T17:52:36;19.90;81.20
1091;DHT22;534;48.704;9.122;2023-05-07T17:55:03;19.80;81.00
1091;DHT22;534;48.704;9.122;2023-05-07T17:57:31;19.70;81.40
1091;DHT22;534;48.704;9.122;2023-05-07T18:00:00;19.70;81.50
1091;DHT22;534;48.704;9.122;2023-05-07T18:02:26;19.70;81.70
1091;DHT22;534;48.704;9.122;2023-05-07T18:04:53;19.80;81.60
1091;DHT22;534;48.704;9.122;2023-05-07T18:07:20;19.80;81.60
1091;DHT22;534;48.704;9.122;2023-05-07T18:09:47;19.80;81.40
1091;DHT22;534;48.704;9.122;2023-05-07T18:12:13;19.90;80.90
1091;DHT22;534;48.704;9.122;2023-05-07T18:14:41;19.80;80.60
1091;DHT22;534;48.704;9.122;2023-05-07T18:17:08;19.80;80.70
1091;DHT22;534;48.704;9.122;2023-05-07T18:19:35;19.70;80.90
1091;DHT22;534;48.704;9.122;2023-05-07T18:22:02;19.70;80.80
1091;DHT22;534;48.704;9.122;2023-05-07T18:24:28;19.70;80.90
1091;DHT22;534;48.704;9.122;2023-05-07T18:26:55;19.80;80.90
1091;DHT22;534;48.704;9.122;2023-05-07T18:29:22;19.80;81.10
1091;DHT22;534;48.704;9.122;2023-05-07T18:31:50;19.80;81.10
1091;DHT22;534;48.704;9.122;2023-05-07T18:34:17;19.70;81.20
1091;DHT22;534;48.704;9.122;2023-05-07T18:36:43;19.60;81.50
1091;DHT22;534;48.704;9.122;2023-05-07T18:39:10;19.60;81.80
1091;DHT22;534;48.704;9.122;2023-05-07T18:41:36;19.50;82.00
1091;DHT22;534;48.704;9.122;2023-05-07T18:44:03;19.50;82.10
1091;DHT22;534;48.704;9.122;2023-05-07T18:46:30;19.40;82.30
1091;DHT22;534;48.704;9.122;2023-05-07T18:48:58;19.40;82.30
1091;DHT22;534;48.704;9.122;2023-05-07T18:51:25;19.50;82.10
1091;DHT22;534;48.704;9.122;2023-05-07T18:53:51;19.50;82.20
1091;DHT22;534;48.704;9.122;2023-05-07T18:56:18;19.50;82.00
1091;DHT22;534;48.704;9.122;2023-05-07T18:58:46;19.50;82.00
1091;DHT22;534;48.704;9.122;2023-05-07T19:01:12;19.40;82.20
1091;DHT22;534;48.704;9.122;2023-05-07T19:03:39;19.40;82.40
1091;DHT22;534;48.704;9.122;2023-05-07T19:06:07;19.40;82.40
1091;DHT22;534;48.704;9.122;2023-05-07T19:08:34;19.20;83.10
1091;DHT22;534;48.704;9.122;2023-05-07T19:11:01;19.30;82.80
1091;DHT22;534;48.704;9.122;2023-05-07T19:13:28;19.40;82.80
1091;DHT22;534;48.704;9.122;2023-05-07T19:15:54;19.40;82.90
1091;DHT22;534;48.704;9.122;2023-05-07T19:18:21;19.50;82.90
1091;DHT22;534;48.704;9.122;2023-05-07T19:20:48;19.50;82.80
1091;DHT22;534;48.704;9.122;2023-05-07T19:23:16;19.50;82.60
1091;DHT22;534;48.704;9.122;2023-05-07T19:25:42;19.50;82.60
1091;DHT22;534;48.704;9.122;2023-05-07T19:28:09;19.60;82.70
1091;DHT22;534;48.704;9.122;2023-05-07T19:30:37;19.60;82.60
1091;DHT22;534;48.704;9.122;2023-05-07T19:33:05;19.60;82.60
1091;DHT22;534;48.704;9.122;2023-05-07T19:35:31;19.60;82.60
1091;DHT22;534;48.704;9.122;2023-05-07T19:37:59;19.40;82.80
1091;DHT22;534;48.704;9.122;2023-05-07T19:40:27;19.30;82.80
1091;DHT22;534;48.704;9.122;2023-05-07T19:42:54;19.30;82.90
1091;DHT22;534;48.704;9.122;2023-05-07T19:45:20;19.10;83.10
1091;DHT22;534;48.704;9.122;2023-05-07T19:47:47;18.90;83.70
1091;DHT22;534;48.704;9.122;2023-05-07T19:50:15;18.80;84.20
1091;DHT22;534;48.704;9.122;2023-05-07T19:52:41;18.50;84.90
1091;DHT22;534;48.704;9.122;2023-05-07T19:55:08;18.60;85.00
1091;DHT22;534;48.704;9.122;2023-05-07T19:57:36;18.20;85.50
1091;DHT22;534;48.704;9.122;2023-05-07T20:00:04;18.30;86.00
1091;DHT22;534;48.704;9.122;2023-05-07T20:02:31;18.10;86.20
1091;DHT22;534;48.704;9.122;2023-05-07T20:04:57;18.20;86.00
1091;DHT22;534;48.704;9.122;2023-05-07T20:07:25;18.40;85.20
1091;DHT22;534;48.704;9.122;2023-05-07T20:09:52;18.50;84.80
1091;DHT22;534;48.704;9.122;2023-05-07T20:12:18;18.50;84.40
1091;DHT22;534;48.704;9.122;2023-05-07T20:14:47;18.70;84.20
1091;DHT22;534;48.704;9.122;2023-05-07T20:17:13;18.80;83.90
1091;DHT22;534;48.704;9.122;2023-05-07T20:19:40;18.90;83.60
1091;DHT22;534;48.704;9.122;2023-05-07T20:22:07;18.70;83.90